Weather

Weather Information Services

Current METAR and TAF for Sabadell Airport (LELL).

LELL 042200Z AUTO VRB01KT CAVOK 20/17 Q1025

TAF LELL 041947Z 0415/0515 CNL= TAF LFBG 042000Z 0421/0521 04005KT CAVOK

Current METAR and TAF for Gerona Airport (LEGE).

LEGE 042200Z 36003KT 330V030 9999 FEW045 20/18 Q1025

TAF LEGE 041700Z 0418/0518 VRB04KT 9999 SCT045 TX29/0513Z TN15/0506Z TEMPO 0422/0506 3000 BR BKN010

Current METAR and TAF for Reus Airport (LERS).

LERS 042200Z VRB01KT 9000 FEW013 SCT015 22/20 Q1025

TAF AMD LERS 042129Z 0421/0521 VRB04KT 9999 BKN020 TX28/0513Z TN18/0505Z PROB40 TEMPO 0421/0504 BKN014 TEMPO 0512/0518 20010KT

Current METAR and TAF for Lleida Airport (LEDA).

LEDA 042200Z AUTO 06006KT CAVOK 19/17 Q1025

TAF LEDA 041400Z 0415/0515 VRB05KT 9999 FEW020 TX31/0515Z TN17/0505Z TEMPO 0418/0420 17010KT TEMPO 0501/0507 3000 BR BKN010

Other amazing weather tools for weather forecast

Ventusky Wind and Temperature Maps

https://www.estofex.org/

Here you have some local Meteo Websites you can check, when flying in Catalunya:

RAW and Decoded METARS
https://e6bx.com/weather/LELL/?showDecoded=1&focuspoint=pressurealt